createdAt,value
2023-04-17T00:00:37.588Z,1.23
2023-04-17T00:03:05.597Z,0.85
2023-04-17T00:05:33.644Z,1.10
2023-04-17T00:08:01.667Z,0.80
2023-04-17T00:10:31.165Z,0.50
2023-04-17T00:12:58.921Z,0.88
2023-04-17T00:15:26.871Z,1.17
2023-04-17T00:17:54.727Z,0.90
2023-04-17T00:20:22.521Z,0.68
2023-04-17T00:22:50.232Z,0.73
2023-04-17T00:25:18.430Z,0.98
2023-04-17T00:27:47.477Z,0.63
2023-04-17T00:30:15.420Z,0.63
2023-04-17T00:32:43.184Z,0.47
2023-04-17T00:35:11.374Z,0.60
2023-04-17T00:37:39.320Z,0.93
2023-04-17T00:40:08.821Z,1.15
2023-04-17T00:42:36.573Z,0.88
2023-04-17T00:45:10.696Z,1.08
2023-04-17T00:47:39.565Z,1.08
2023-04-17T00:50:09.563Z,0.93
2023-04-17T00:52:37.460Z,0.77
2023-04-17T00:55:06.254Z,1.20
2023-04-17T00:57:35.386Z,0.68
2023-04-17T01:00:03.523Z,1.08
2023-04-17T01:02:33.249Z,0.55
2023-04-17T01:05:01.100Z,0.73
2023-04-17T01:07:30.926Z,1.17
2023-04-17T01:09:58.754Z,0.90
2023-04-17T01:12:27.016Z,1.05
2023-04-17T01:14:56.435Z,1.00
2023-04-17T01:17:27.672Z,1.02
2023-04-17T01:19:58.803Z,0.80
2023-04-17T01:22:26.596Z,0.85
2023-04-17T01:24:55.662Z,1.10
2023-04-17T01:27:23.466Z,1.02
2023-04-17T01:29:51.239Z,0.68
2023-04-17T01:32:19.527Z,1.00
2023-04-17T01:34:47.420Z,1.27
2023-04-17T01:37:15.112Z,0.85
2023-04-17T01:39:43.110Z,0.80
2023-04-17T01:42:12.176Z,0.73
2023-04-17T01:44:39.937Z,0.70
2023-04-17T01:47:07.636Z,0.80
2023-04-17T01:49:35.325Z,0.80
2023-04-17T01:52:03.038Z,0.57
2023-04-17T01:54:30.719Z,0.63
2023-04-17T01:56:58.793Z,0.57
2023-04-17T01:59:28.074Z,0.63
2023-04-17T02:01:56.466Z,1.10
2023-04-17T02:04:24.424Z,0.45
2023-04-17T02:06:52.279Z,0.40
2023-04-17T02:09:20.069Z,0.68
2023-04-17T02:11:47.809Z,0.52
2023-04-17T02:14:15.664Z,0.70
2023-04-17T02:16:46.019Z,0.77
2023-04-17T02:19:14.262Z,1.02
2023-04-17T02:21:42.199Z,1.20
2023-04-17T02:24:09.989Z,0.95
2023-04-17T02:26:37.733Z,0.90
2023-04-17T02:29:05.446Z,0.47
2023-04-17T02:31:33.208Z,0.35
2023-04-17T02:34:03.328Z,0.40
2023-04-17T02:36:31.194Z,0.80
2023-04-17T02:38:58.866Z,0.50
2023-04-17T02:41:26.744Z,0.43
2023-04-17T02:43:54.450Z,0.55
2023-04-17T02:46:22.192Z,0.77
2023-04-17T02:48:49.993Z,0.57
2023-04-17T02:51:19.048Z,0.57
2023-04-17T02:53:49.004Z,0.80
2023-04-17T02:56:16.760Z,0.82
2023-04-17T02:58:45.497Z,0.75
2023-04-17T03:01:13.371Z,0.90
2023-04-17T03:03:42.569Z,0.30
2023-04-17T03:06:10.675Z,0.50
2023-04-17T03:08:39.876Z,0.60
2023-04-17T03:11:07.738Z,0.30
2023-04-17T03:13:37.368Z,0.40
2023-04-17T03:16:06.128Z,0.38
2023-04-17T03:18:36.198Z,0.28
2023-04-17T03:21:04.142Z,0.50
2023-04-17T03:23:31.887Z,0.77
2023-04-17T03:26:01.211Z,0.57
2023-04-17T03:28:28.902Z,0.52
2023-04-17T03:30:59.315Z,0.30
2023-04-17T03:33:27.251Z,0.73
2023-04-17T03:35:55.042Z,0.75
2023-04-17T03:38:22.798Z,0.57
2023-04-17T03:40:51.037Z,0.82
2023-04-17T03:43:20.355Z,0.65
2023-04-17T03:45:48.160Z,0.80
2023-04-17T03:48:15.946Z,0.60
2023-04-17T03:50:43.725Z,0.70
2023-04-17T03:53:11.562Z,0.60
2023-04-17T03:55:39.246Z,0.30
2023-04-17T03:58:06.927Z,0.88
2023-04-17T04:00:37.238Z,0.57
2023-04-17T04:03:05.329Z,0.50
2023-04-17T04:05:33.224Z,0.80
2023-04-17T04:08:01.142Z,0.85
2023-04-17T04:10:28.842Z,0.47
2023-04-17T04:12:56.513Z,0.60
2023-04-17T04:15:24.227Z,1.02
2023-04-17T04:17:53.317Z,0.80
2023-04-17T04:20:22.195Z,0.57
2023-04-17T04:22:50.690Z,0.45
2023-04-17T04:25:18.493Z,0.30
2023-04-17T04:27:49.787Z,0.50
2023-04-17T04:30:17.710Z,0.77
2023-04-17T04:32:46.527Z,0.52
2023-04-17T04:35:16.657Z,0.40
2023-04-17T04:37:46.531Z,0.55
2023-04-17T04:40:14.870Z,0.88
2023-04-17T04:42:43.241Z,0.73
2023-04-17T04:45:12.510Z,0.43
2023-04-17T04:47:41.142Z,0.52
2023-04-17T04:50:10.178Z,0.50
2023-04-17T04:52:39.228Z,0.38
2023-04-17T04:55:08.448Z,0.80
2023-04-17T04:57:36.260Z,0.55
2023-04-17T05:00:06.209Z,0.52
2023-04-17T05:02:35.028Z,1.10
2023-04-17T05:05:02.977Z,0.82
2023-04-17T05:07:30.764Z,0.80
2023-04-17T05:09:59.854Z,0.63
2023-04-17T05:12:27.628Z,0.47
2023-04-17T05:14:55.338Z,0.90
2023-04-17T05:17:23.292Z,0.70
2023-04-17T05:19:51.028Z,1.02
2023-04-17T05:22:18.738Z,0.80
2023-04-17T05:24:46.483Z,0.73
2023-04-17T05:27:16.454Z,0.40
2023-04-17T05:29:44.462Z,1.20
2023-04-17T05:32:12.428Z,0.90
2023-04-17T05:34:40.201Z,0.40
2023-04-17T05:37:08.107Z,1.10
2023-04-17T05:39:36.057Z,0.38
2023-04-17T05:42:03.779Z,0.68
2023-04-17T05:44:33.156Z,0.82
2023-04-17T05:47:00.980Z,0.85
2023-04-17T05:49:28.722Z,0.93
2023-04-17T05:51:56.656Z,0.98
2023-04-17T05:54:24.370Z,0.68
2023-04-17T05:56:53.036Z,0.38
2023-04-17T05:59:21.027Z,0.45
2023-04-17T06:01:50.878Z,0.30
2023-04-17T06:04:18.917Z,0.10
2023-04-17T06:06:46.827Z,0.50
2023-04-17T06:09:15.215Z,0.35
2023-04-17T06:11:43.231Z,0.20
2023-04-17T06:14:11.205Z,0.47
2023-04-17T06:16:38.909Z,0.30
2023-04-17T06:19:08.017Z,0.40
2023-04-17T06:21:35.787Z,0.20
2023-04-17T06:24:03.498Z,0.68
2023-04-17T06:26:31.216Z,0.45
2023-04-17T06:28:58.962Z,0.20
2023-04-17T06:31:27.038Z,0.57
2023-04-17T06:33:54.982Z,0.32
2023-04-17T06:36:24.174Z,0.63
2023-04-17T06:38:51.866Z,0.63
2023-04-17T06:41:19.661Z,0.20
2023-04-17T06:43:47.369Z,0.50
2023-04-17T06:46:15.464Z,0.45
2023-04-17T06:48:43.514Z,0.28
2023-04-17T06:51:11.234Z,0.35
2023-04-17T06:53:40.261Z,0.47
2023-04-17T06:56:08.240Z,0.22
2023-04-17T06:58:42.165Z,0.30
2023-04-17T07:01:09.944Z,0.20
2023-04-17T07:03:38.016Z,0.30
2023-04-17T07:06:06.426Z,0.10
2023-04-17T07:08:34.580Z,0.10
2023-04-17T07:11:03.681Z,0.20
2023-04-17T07:13:33.268Z,0.40
2023-04-17T07:16:01.301Z,0.40
2023-04-17T07:18:30.266Z,0.28
2023-04-17T07:20:58.211Z,0.20
2023-04-17T07:23:26.143Z,0.40
2023-04-17T07:25:54.078Z,0.30
2023-04-17T07:28:23.134Z,0.52
2023-04-17T07:30:51.056Z,0.70
2023-04-17T07:33:18.754Z,0.20
2023-04-17T07:35:46.684Z,0.30
2023-04-17T07:38:14.446Z,0.40
2023-04-17T07:40:42.282Z,0.30
2023-04-17T07:43:10.107Z,0.30
2023-04-17T07:45:41.659Z,0.20
2023-04-17T07:48:10.537Z,0.40
2023-04-17T07:50:38.612Z,0.10
2023-04-17T07:53:06.511Z,0.50
2023-04-17T07:55:34.677Z,0.43
2023-04-17T07:58:03.671Z,0.30
2023-04-17T08:00:31.634Z,0.50
2023-04-17T08:03:02.020Z,0.20
2023-04-17T08:05:30.382Z,0.10
2023-04-17T08:08:00.069Z,0.50
2023-04-17T08:10:28.527Z,0.47
2023-04-17T08:12:56.416Z,0.28
2023-04-17T08:15:24.451Z,0.40
2023-04-17T08:17:52.244Z,0.52
2023-04-17T08:20:22.028Z,0.40
2023-04-17T08:22:49.795Z,0.75
2023-04-17T08:25:17.582Z,0.75
2023-04-17T08:27:46.227Z,1.10
2023-04-17T08:30:18.617Z,0.52
2023-04-17T08:32:48.922Z,0.52
2023-04-17T08:35:17.576Z,0.65
2023-04-17T08:37:47.322Z,1.10
2023-04-17T08:40:16.990Z,1.00
2023-04-17T08:42:47.501Z,0.57
2023-04-17T08:45:16.206Z,1.33
2023-04-17T08:47:44.918Z,0.93
2023-04-17T08:50:16.491Z,1.10
2023-04-17T08:52:48.914Z,0.88
2023-04-17T08:55:20.374Z,0.90
2023-04-17T08:57:57.436Z,1.25
2023-04-17T09:00:31.062Z,0.93
2023-04-17T09:03:02.572Z,0.95
2023-04-17T09:05:33.537Z,0.93
2023-04-17T09:08:12.748Z,0.65
2023-04-17T09:10:43.570Z,0.70
2023-04-17T09:13:14.471Z,0.95
2023-04-17T09:15:43.985Z,0.47
2023-04-17T09:18:28.058Z,0.90
2023-04-17T09:20:57.486Z,0.57
2023-04-17T09:23:27.668Z,0.60
2023-04-17T09:26:09.936Z,0.52
2023-04-17T09:28:39.883Z,0.88
2023-04-17T09:31:26.091Z,0.57
2023-04-17T09:33:58.510Z,0.90
2023-04-17T09:36:27.890Z,0.82
2023-04-17T09:38:57.422Z,0.65
2023-04-17T09:41:27.148Z,0.60
2023-04-17T09:43:56.660Z,0.93
2023-04-17T09:46:37.850Z,0.75
2023-04-17T09:49:15.037Z,0.55
2023-04-17T09:51:43.703Z,0.70
2023-04-17T09:54:15.773Z,0.75
2023-04-17T09:56:44.776Z,0.50
2023-04-17T09:59:13.493Z,0.60
2023-04-17T10:01:41.436Z,0.50
2023-04-17T10:04:09.829Z,0.88
2023-04-17T10:06:38.201Z,0.80
2023-04-17T10:09:06.062Z,0.77
2023-04-17T10:11:41.622Z,0.98
2023-04-17T10:14:16.326Z,0.65
2023-04-17T10:16:44.422Z,0.95
2023-04-17T10:19:30.849Z,1.15
2023-04-17T10:22:36.601Z,0.68
2023-04-17T10:25:25.013Z,0.93
2023-04-17T10:27:58.317Z,0.73
2023-04-17T10:30:55.511Z,0.77
2023-04-17T10:33:26.342Z,1.17
2023-04-17T10:35:55.624Z,1.13
2023-04-17T10:38:35.658Z,1.52
2023-04-17T10:41:08.916Z,0.63
2023-04-17T10:43:41.164Z,1.10
2023-04-17T10:46:13.508Z,0.77
2023-04-17T10:48:49.545Z,1.00
2023-04-17T10:51:43.871Z,0.70
2023-04-17T10:54:15.434Z,1.00
2023-04-17T10:56:48.102Z,1.20
2023-04-17T10:59:18.116Z,0.93
2023-04-17T11:02:04.291Z,1.13
2023-04-17T11:04:33.684Z,0.95
2023-04-17T11:07:01.894Z,0.82
2023-04-17T11:09:30.422Z,0.57
2023-04-17T11:12:01.247Z,1.05
2023-04-17T11:14:30.105Z,0.80
2023-04-17T11:16:58.046Z,1.13
2023-04-17T11:19:27.367Z,1.35
2023-04-17T11:21:58.482Z,1.00
2023-04-17T11:24:28.982Z,0.88
2023-04-17T11:26:59.507Z,0.88
2023-04-17T11:29:28.322Z,0.68
2023-04-17T11:31:58.153Z,0.63
2023-04-17T11:34:27.894Z,1.10
2023-04-17T11:36:58.217Z,1.02
2023-04-17T11:39:29.174Z,0.68
2023-04-17T11:41:57.855Z,0.65
2023-04-17T11:44:26.876Z,0.93
2023-04-17T11:46:56.473Z,1.00
2023-04-17T11:49:30.949Z,0.60
2023-04-17T11:52:01.957Z,0.98
2023-04-17T11:54:31.999Z,0.70
2023-04-17T11:57:02.411Z,0.77
2023-04-17T11:59:37.708Z,1.08
2023-04-17T12:02:07.855Z,1.00
2023-04-17T12:04:39.667Z,0.75
2023-04-17T12:07:21.442Z,0.85
2023-04-17T12:09:56.927Z,0.70
2023-04-17T12:12:24.611Z,1.25
2023-04-17T12:14:52.359Z,1.13
2023-04-17T12:17:20.067Z,1.33
2023-04-17T12:19:49.189Z,0.85
2023-04-17T12:22:17.220Z,0.73
2023-04-17T12:24:46.336Z,0.95
2023-04-17T12:27:14.071Z,0.70
2023-04-17T12:29:44.449Z,0.75
2023-04-17T12:32:13.117Z,1.20
2023-04-17T12:34:40.976Z,0.98
2023-04-17T12:37:10.215Z,0.90
2023-04-17T12:39:38.004Z,1.40
2023-04-17T12:42:05.931Z,1.13
2023-04-17T12:44:33.713Z,1.33
2023-04-17T12:47:01.729Z,1.80
2023-04-17T12:49:29.463Z,1.10
2023-04-17T12:51:57.229Z,1.00
2023-04-17T12:54:26.384Z,0.80
2023-04-17T12:56:54.304Z,1.38
2023-04-17T12:59:22.152Z,0.70
2023-04-17T13:01:50.012Z,1.17
2023-04-17T13:04:18.022Z,1.08
2023-04-17T13:06:46.177Z,0.68
2023-04-17T13:09:14.132Z,1.00
2023-04-17T13:11:43.238Z,0.80
2023-04-17T13:14:11.280Z,0.73
2023-04-17T13:16:39.309Z,0.98
2023-04-17T13:19:07.169Z,0.90
2023-04-17T13:21:35.117Z,1.20
2023-04-17T13:24:03.053Z,1.00
2023-04-17T13:26:31.081Z,0.90
2023-04-17T13:29:00.266Z,0.75
2023-04-17T13:31:28.157Z,0.80
2023-04-17T13:33:56.317Z,0.50
2023-04-17T13:36:24.568Z,0.70
2023-04-17T13:38:52.371Z,0.82
2023-04-17T13:41:20.833Z,0.50
2023-04-17T13:43:48.563Z,0.88
2023-04-17T13:46:18.092Z,0.60
2023-04-17T13:48:46.246Z,0.93
2023-04-17T13:51:14.858Z,0.45
2023-04-17T13:53:42.594Z,1.05
2023-04-17T13:56:10.438Z,0.82
2023-04-17T13:58:40.273Z,0.70
2023-04-17T14:01:08.804Z,0.90
2023-04-17T14:03:40.081Z,0.93
2023-04-17T14:06:09.152Z,0.80
2023-04-17T14:08:37.080Z,0.68
2023-04-17T14:11:04.845Z,0.90
2023-04-17T14:13:32.739Z,1.10
2023-04-17T14:16:00.723Z,1.02
2023-04-17T14:18:28.623Z,0.60
2023-04-17T14:20:57.807Z,0.82
2023-04-17T14:23:25.624Z,0.57
2023-04-17T14:25:53.579Z,0.77
2023-04-17T14:28:21.754Z,0.93
2023-04-17T14:30:49.586Z,0.75
2023-04-17T14:33:17.432Z,0.73
2023-04-17T14:35:45.280Z,0.73
2023-04-17T14:38:14.390Z,0.75
2023-04-17T14:40:42.246Z,0.70
2023-04-17T14:43:10.005Z,0.70
2023-04-17T14:45:37.926Z,0.55
2023-04-17T14:48:06.641Z,0.60
2023-04-17T14:50:34.514Z,0.40
2023-04-17T14:53:03.376Z,0.40
2023-04-17T14:55:32.974Z,0.63
2023-04-17T14:58:01.183Z,0.70
2023-04-17T15:00:29.471Z,0.98
2023-04-17T15:02:57.375Z,0.70
2023-04-17T15:05:25.470Z,0.50
2023-04-17T15:07:54.476Z,0.50
2023-04-17T15:10:22.264Z,0.60
2023-04-17T15:12:51.290Z,0.57
2023-04-17T15:15:19.043Z,0.60
2023-04-17T15:17:47.686Z,1.00
2023-04-17T15:20:16.232Z,0.50
2023-04-17T15:22:44.020Z,0.60
2023-04-17T15:25:11.984Z,0.55
2023-04-17T15:27:39.793Z,0.50
2023-04-17T15:30:10.990Z,0.55
2023-04-17T15:32:38.792Z,0.57
2023-04-17T15:35:07.408Z,0.30
2023-04-17T15:37:35.312Z,0.47
2023-04-17T15:40:03.397Z,0.75
2023-04-17T15:42:31.297Z,0.57
2023-04-17T15:44:59.023Z,0.50
2023-04-17T15:47:28.544Z,0.80
2023-04-17T15:49:56.343Z,0.70
2023-04-17T15:52:24.180Z,0.60
2023-04-17T15:54:51.996Z,0.80
2023-04-17T15:57:19.907Z,0.70
2023-04-17T15:59:47.661Z,0.40
2023-04-17T16:02:15.846Z,0.60
2023-04-17T16:04:45.198Z,0.60
2023-04-17T16:07:13.976Z,0.80
2023-04-17T16:09:44.253Z,0.40
2023-04-17T16:12:12.031Z,0.70
2023-04-17T16:14:39.772Z,0.98
2023-04-17T16:17:07.735Z,0.68
2023-04-17T16:19:35.714Z,0.30
2023-04-17T16:22:04.984Z,0.70
2023-04-17T16:24:32.764Z,0.77
2023-04-17T16:27:02.723Z,0.40
2023-04-17T16:29:30.705Z,0.43
2023-04-17T16:31:59.496Z,0.82
2023-04-17T16:34:27.462Z,0.50
2023-04-17T16:36:55.188Z,0.77
2023-04-17T16:39:24.642Z,0.63
2023-04-17T16:41:52.953Z,0.80
2023-04-17T16:44:20.820Z,0.63
2023-04-17T16:49:19.142Z,0.77
2023-04-17T16:51:47.455Z,1.02
2023-04-17T16:54:15.413Z,0.80
2023-04-17T16:56:44.471Z,0.60
2023-04-17T16:59:12.344Z,0.80
2023-04-17T17:01:40.383Z,0.70
2023-04-17T17:04:08.674Z,0.60
2023-04-17T17:06:36.422Z,1.10
2023-04-17T17:09:04.265Z,1.20
2023-04-17T17:11:31.940Z,0.75
2023-04-17T17:14:01.023Z,0.77
2023-04-17T17:16:28.858Z,0.80
2023-04-17T17:18:56.596Z,0.77
2023-04-17T17:21:24.375Z,0.60
2023-04-17T17:23:52.127Z,0.88
2023-04-17T17:26:19.868Z,0.65
2023-04-17T17:28:50.967Z,0.68
2023-04-17T17:31:21.445Z,0.80
2023-04-17T17:33:50.019Z,0.82
2023-04-17T17:36:18.364Z,0.93
2023-04-17T17:38:46.250Z,1.17
2023-04-17T17:41:14.098Z,1.27
2023-04-17T17:43:41.828Z,1.08
2023-04-17T17:46:09.633Z,1.10
2023-04-17T17:48:38.905Z,1.13
2023-04-17T17:51:06.848Z,1.30
2023-04-17T17:53:34.589Z,1.23
2023-04-17T17:56:02.629Z,1.60
2023-04-17T17:58:30.380Z,1.10
2023-04-17T18:00:58.237Z,1.38
2023-04-17T18:03:26.252Z,1.50
2023-04-17T18:05:55.550Z,1.30
2023-04-17T18:08:23.270Z,1.65
2023-04-17T18:10:51.581Z,2.03
2023-04-17T18:13:19.261Z,1.38
2023-04-17T18:15:46.974Z,1.52
2023-04-17T18:18:14.853Z,1.60
2023-04-17T18:20:42.566Z,1.33
2023-04-17T18:23:11.679Z,2.03
2023-04-17T18:25:40.771Z,1.33
2023-04-17T18:28:08.537Z,1.50
2023-04-17T18:30:36.404Z,1.20
2023-04-17T18:33:04.414Z,1.55
2023-04-17T18:35:32.110Z,1.40
2023-04-17T18:37:59.790Z,1.67
2023-04-17T18:40:28.847Z,1.92
2023-04-17T18:42:56.534Z,1.90
2023-04-17T18:45:24.360Z,1.60
2023-04-17T18:47:52.129Z,1.63
2023-04-17T18:50:20.276Z,1.33
2023-04-17T18:52:51.034Z,2.47
2023-04-17T18:55:19.269Z,1.83
2023-04-17T18:57:48.326Z,1.92
2023-04-17T19:00:16.720Z,1.30
2023-04-17T19:02:44.582Z,1.30
2023-04-17T19:05:12.647Z,1.90
2023-04-17T19:07:40.746Z,1.80
2023-04-17T19:10:09.971Z,2.00
2023-04-17T19:12:37.777Z,1.45
2023-04-17T19:15:09.172Z,1.60
2023-04-17T19:17:37.239Z,1.38
2023-04-17T19:20:06.402Z,1.13
2023-04-17T19:22:34.103Z,1.58
2023-04-17T19:25:01.964Z,2.28
2023-04-17T19:27:29.722Z,1.17
2023-04-17T19:29:58.022Z,2.00
2023-04-17T19:32:27.277Z,1.50
2023-04-17T19:34:55.027Z,1.17
2023-04-17T19:37:22.741Z,1.40
2023-04-17T19:39:51.567Z,1.60
2023-04-17T19:42:21.946Z,1.02
2023-04-17T19:44:49.724Z,1.00
2023-04-17T19:47:17.449Z,0.98
2023-04-17T19:49:46.576Z,1.85
2023-04-17T19:52:14.549Z,2.10
2023-04-17T19:54:45.149Z,1.55
2023-04-17T19:57:12.918Z,1.40
2023-04-17T19:59:41.040Z,1.55
2023-04-17T20:02:08.845Z,0.60
2023-04-17T20:04:36.603Z,1.75
2023-04-17T20:07:05.661Z,1.25
2023-04-17T20:09:33.540Z,1.77
2023-04-17T20:12:01.312Z,1.40
2023-04-17T20:14:29.000Z,1.48
2023-04-17T20:16:56.747Z,1.45
2023-04-17T20:19:24.808Z,0.95
2023-04-17T20:21:52.525Z,1.45
2023-04-17T20:24:21.536Z,1.17
2023-04-17T20:26:49.235Z,0.85
2023-04-17T20:29:16.924Z,1.33
2023-04-17T20:31:44.981Z,1.05
2023-04-17T20:34:12.764Z,0.77
2023-04-17T20:36:40.529Z,1.52
2023-04-17T20:39:10.854Z,1.52
2023-04-17T20:41:40.225Z,1.10
2023-04-17T20:44:07.966Z,1.23
2023-04-17T20:46:35.809Z,1.08
2023-04-17T20:49:03.637Z,1.45
2023-04-17T20:51:31.939Z,1.40
2023-04-17T20:53:59.726Z,1.00
2023-04-17T20:56:27.547Z,1.00
2023-04-17T20:58:56.610Z,0.93
2023-04-17T21:01:24.353Z,0.93
2023-04-17T21:03:52.781Z,0.77
2023-04-17T21:06:21.014Z,1.17
2023-04-17T21:08:48.746Z,1.08
2023-04-17T21:11:16.630Z,1.10
2023-04-17T21:13:44.345Z,0.95
2023-04-17T21:16:15.140Z,1.00
2023-04-17T21:18:43.020Z,1.25
2023-04-17T21:21:10.766Z,1.00
2023-04-17T21:23:38.477Z,1.27
2023-04-17T21:26:06.412Z,1.55
2023-04-17T21:28:34.121Z,1.48
2023-04-17T21:31:01.915Z,1.27
2023-04-17T21:33:31.025Z,1.17
2023-04-17T21:35:58.698Z,1.50
2023-04-17T21:38:27.213Z,1.58
2023-04-17T21:40:55.224Z,1.40
2023-04-17T21:43:22.942Z,1.17
2023-04-17T21:45:50.855Z,1.27
2023-04-17T21:48:18.671Z,1.60
2023-04-17T21:50:47.687Z,1.08
2023-04-17T21:53:15.618Z,2.08
2023-04-17T21:55:43.522Z,1.75
2023-04-17T21:58:11.259Z,1.83
2023-04-17T22:00:38.935Z,1.65
2023-04-17T22:03:06.701Z,1.55
2023-04-17T22:05:34.458Z,1.52
2023-04-17T22:08:03.650Z,1.73
2023-04-17T22:10:31.377Z,2.00
2023-04-17T22:12:59.614Z,1.63
2023-04-17T22:15:27.442Z,1.35
2023-04-17T22:17:55.189Z,2.00
2023-04-17T22:20:23.190Z,1.08
2023-04-17T22:22:50.894Z,1.38
2023-04-17T22:25:20.733Z,1.70
2023-04-17T22:27:48.796Z,1.63
2023-04-17T22:30:16.562Z,1.65
2023-04-17T22:32:44.391Z,1.48
2023-04-17T22:35:12.144Z,1.10
2023-04-17T22:37:40.297Z,1.33
2023-04-17T22:40:09.933Z,1.15
2023-04-17T22:42:38.974Z,1.23
2023-04-17T22:45:07.771Z,1.77
2023-04-17T22:47:35.508Z,1.63
2023-04-17T22:50:03.367Z,1.42
2023-04-17T22:52:31.077Z,1.45
2023-04-17T22:54:59.176Z,1.30
2023-04-17T22:57:26.901Z,1.77
2023-04-17T22:59:55.971Z,1.90
2023-04-17T23:02:24.008Z,1.48
2023-04-17T23:04:51.827Z,1.67
2023-04-17T23:07:19.560Z,1.33
2023-04-17T23:09:47.253Z,1.73
2023-04-17T23:12:15.011Z,2.00
2023-04-17T23:14:43.677Z,1.50
2023-04-17T23:17:12.933Z,1.25
2023-04-17T23:19:40.710Z,1.80
2023-04-17T23:22:08.434Z,1.58
2023-04-17T23:24:36.393Z,1.08
2023-04-17T23:27:04.103Z,1.42
2023-04-17T23:29:31.798Z,2.00
2023-04-17T23:31:59.640Z,1.23
2023-04-17T23:34:28.694Z,1.48
2023-04-17T23:36:56.482Z,1.25
2023-04-17T23:39:25.058Z,1.00
2023-04-17T23:41:52.770Z,1.33
2023-04-17T23:44:20.781Z,1.92
2023-04-17T23:46:48.570Z,2.67
2023-04-17T23:49:16.264Z,1.90
2023-04-17T23:51:45.731Z,1.60
2023-04-17T23:54:13.645Z,1.55
2023-04-17T23:56:43.195Z,1.92
2023-04-17T23:59:11.000Z,1.55
